Robertson, Iowa
Current Conditions -  °F | °C
As of 11:35 AM on Thursday 23 Oct 2014 (Local Time) from KIFA Reporting Station
Haze Haze  
Wind Chill: 55°   Ceiling: 300
Heat Index: 55°   Visibility: 2mi
Dew Point: 54°   Wind: 7mph
Humidity: 96%   Direction: 250°WSW
Pressure: 30.05"   Gusts: NA
Location:  42.5577°N, 93.0852°W
Report Text: KIFA 231635Z AUTO 25006KT 2SM BR OVC003 13/12 A3005 RMK AO2 T01300124
Loading
Personal Weather Stations






























Interactive Weather Map
Tropical Storm Tracking
New forecast layout! Learn more

10-Day Weather Forecast

Advertisements
Track Severe Weather on mobile